sensor_id;sensor_type;location;lat;lon;timestamp;P1;durP1;ratioP1;P2;durP2;ratioP2
10319;SDS011;5205;52.168;5.420;2023-07-29T00:00:13;3.00;;;1.27;;
10319;SDS011;5205;52.168;5.420;2023-07-29T00:02:40;3.42;;;1.17;;
10319;SDS011;5205;52.168;5.420;2023-07-29T00:05:09;7.00;;;1.25;;
10319;SDS011;5205;52.168;5.420;2023-07-29T00:07:36;2.15;;;1.10;;
10319;SDS011;5205;52.168;5.420;2023-07-29T00:10:03;4.25;;;1.30;;
10319;SDS011;5205;52.168;5.420;2023-07-29T00:12:31;3.97;;;1.30;;
10319;SDS011;5205;52.168;5.420;2023-07-29T00:14:58;3.90;;;1.52;;
10319;SDS011;5205;52.168;5.420;2023-07-29T00:17:25;2.92;;;1.20;;
10319;SDS011;5205;52.168;5.420;2023-07-29T00:19:52;2.50;;;1.08;;
10319;SDS011;5205;52.168;5.420;2023-07-29T00:22:21;6.63;;;1.30;;
10319;SDS011;5205;52.168;5.420;2023-07-29T00:24:51;4.25;;;1.40;;
10319;SDS011;5205;52.168;5.420;2023-07-29T00:27:18;3.10;;;1.48;;
10319;SDS011;5205;52.168;5.420;2023-07-29T00:29:45;1.58;;;1.08;;
10319;SDS011;5205;52.168;5.420;2023-07-29T00:32:13;4.63;;;1.30;;
10319;SDS011;5205;52.168;5.420;2023-07-29T00:34:40;3.95;;;1.17;;
10319;SDS011;5205;52.168;5.420;2023-07-29T00:37:07;3.05;;;1.45;;
10319;SDS011;5205;52.168;5.420;2023-07-29T00:39:37;2.00;;;1.20;;
10319;SDS011;5205;52.168;5.420;2023-07-29T00:42:04;3.45;;;1.17;;
10319;SDS011;5205;52.168;5.420;2023-07-29T00:44:32;2.63;;;1.05;;
10319;SDS011;5205;52.168;5.420;2023-07-29T00:46:59;4.43;;;1.15;;
10319;SDS011;5205;52.168;5.420;2023-07-29T00:49:27;2.88;;;1.38;;
10319;SDS011;5205;52.168;5.420;2023-07-29T00:51:54;4.53;;;1.20;;
10319;SDS011;5205;52.168;5.420;2023-07-29T00:54:21;5.50;;;1.38;;
10319;SDS011;5205;52.168;5.420;2023-07-29T00:56:50;3.38;;;1.30;;
10319;SDS011;5205;52.168;5.420;2023-07-29T00:59:17;2.08;;;1.30;;
10319;SDS011;5205;52.168;5.420;2023-07-29T01:01:44;2.38;;;1.10;;
10319;SDS011;5205;52.168;5.420;2023-07-29T01:04:11;2.55;;;1.17;;
10319;SDS011;5205;52.168;5.420;2023-07-29T01:06:40;2.85;;;1.02;;
10319;SDS011;5205;52.168;5.420;2023-07-29T01:09:09;2.08;;;1.00;;
10319;SDS011;5205;52.168;5.420;2023-07-29T01:11:41;1.80;;;1.30;;
10319;SDS011;5205;52.168;5.420;2023-07-29T01:14:13;3.28;;;1.30;;
10319;SDS011;5205;52.168;5.420;2023-07-29T01:16:44;2.30;;;1.20;;
10319;SDS011;5205;52.168;5.420;2023-07-29T01:19:15;1.92;;;1.10;;
10319;SDS011;5205;52.168;5.420;2023-07-29T01:21:46;4.18;;;1.33;;
10319;SDS011;5205;52.168;5.420;2023-07-29T01:24:14;4.03;;;1.48;;
10319;SDS011;5205;52.168;5.420;2023-07-29T01:26:41;7.00;;;1.50;;
10319;SDS011;5205;52.168;5.420;2023-07-29T01:29:08;3.30;;;1.40;;
10319;SDS011;5205;52.168;5.420;2023-07-29T01:31:37;3.35;;;1.40;;
10319;SDS011;5205;52.168;5.420;2023-07-29T01:34:09;4.80;;;1.63;;
10319;SDS011;5205;52.168;5.420;2023-07-29T01:36:40;3.47;;;1.40;;
10319;SDS011;5205;52.168;5.420;2023-07-29T01:39:08;5.07;;;1.65;;
10319;SDS011;5205;52.168;5.420;2023-07-29T01:41:37;3.60;;;1.70;;
10319;SDS011;5205;52.168;5.420;2023-07-29T01:44:05;3.33;;;1.50;;
10319;SDS011;5205;52.168;5.420;2023-07-29T01:46:33;4.03;;;1.67;;
10319;SDS011;5205;52.168;5.420;2023-07-29T01:49:00;4.18;;;1.50;;
10319;SDS011;5205;52.168;5.420;2023-07-29T01:51:27;3.95;;;1.70;;
10319;SDS011;5205;52.168;5.420;2023-07-29T01:53:54;7.75;;;2.05;;
10319;SDS011;5205;52.168;5.420;2023-07-29T01:56:21;7.47;;;1.90;;
10319;SDS011;5205;52.168;5.420;2023-07-29T01:58:50;4.43;;;2.00;;
10319;SDS011;5205;52.168;5.420;2023-07-29T02:01:17;3.88;;;1.92;;
10319;SDS011;5205;52.168;5.420;2023-07-29T02:03:44;7.05;;;2.22;;
10319;SDS011;5205;52.168;5.420;2023-07-29T02:06:11;8.73;;;2.50;;
10319;SDS011;5205;52.168;5.420;2023-07-29T02:08:38;6.68;;;2.38;;
10319;SDS011;5205;52.168;5.420;2023-07-29T02:11:06;6.18;;;2.53;;
10319;SDS011;5205;52.168;5.420;2023-07-29T02:13:33;4.80;;;2.38;;
10319;SDS011;5205;52.168;5.420;2023-07-29T02:16:02;14.25;;;2.92;;
10319;SDS011;5205;52.168;5.420;2023-07-29T02:18:29;5.43;;;2.47;;
10319;SDS011;5205;52.168;5.420;2023-07-29T02:20:56;3.28;;;1.88;;
10319;SDS011;5205;52.168;5.420;2023-07-29T02:23:23;7.53;;;2.55;;
10319;SDS011;5205;52.168;5.420;2023-07-29T02:25:51;5.20;;;2.30;;
10319;SDS011;5205;52.168;5.420;2023-07-29T02:28:18;10.15;;;2.65;;
10319;SDS011;5205;52.168;5.420;2023-07-29T02:30:45;10.02;;;2.70;;
10319;SDS011;5205;52.168;5.420;2023-07-29T02:33:16;5.65;;;2.30;;
10319;SDS011;5205;52.168;5.420;2023-07-29T02:35:43;4.22;;;2.17;;
10319;SDS011;5205;52.168;5.420;2023-07-29T02:38:10;9.05;;;3.03;;
10319;SDS011;5205;52.168;5.420;2023-07-29T02:40:37;8.63;;;2.13;;
10319;SDS011;5205;52.168;5.420;2023-07-29T02:43:04;6.40;;;2.58;;
10319;SDS011;5205;52.168;5.420;2023-07-29T02:45:31;4.78;;;2.30;;
10319;SDS011;5205;52.168;5.420;2023-07-29T02:47:59;5.40;;;2.60;;
10319;SDS011;5205;52.168;5.420;2023-07-29T02:50:27;6.90;;;2.28;;
10319;SDS011;5205;52.168;5.420;2023-07-29T02:52:54;6.43;;;2.28;;
10319;SDS011;5205;52.168;5.420;2023-07-29T02:55:21;6.10;;;2.80;;
10319;SDS011;5205;52.168;5.420;2023-07-29T02:57:48;4.03;;;2.38;;
10319;SDS011;5205;52.168;5.420;2023-07-29T03:00:15;6.18;;;2.95;;
10319;SDS011;5205;52.168;5.420;2023-07-29T03:02:43;7.50;;;2.63;;
10319;SDS011;5205;52.168;5.420;2023-07-29T03:05:10;7.63;;;2.38;;
10319;SDS011;5205;52.168;5.420;2023-07-29T03:07:39;7.97;;;2.92;;
10319;SDS011;5205;52.168;5.420;2023-07-29T03:10:06;10.77;;;3.22;;
10319;SDS011;5205;52.168;5.420;2023-07-29T03:12:33;6.13;;;3.05;;
10319;SDS011;5205;52.168;5.420;2023-07-29T03:15:00;8.20;;;3.15;;
10319;SDS011;5205;52.168;5.420;2023-07-29T03:17:27;7.40;;;3.25;;
10319;SDS011;5205;52.168;5.420;2023-07-29T03:19:54;8.27;;;3.75;;
10319;SDS011;5205;52.168;5.420;2023-07-29T03:22:21;7.78;;;3.05;;
10319;SDS011;5205;52.168;5.420;2023-07-29T03:24:50;9.20;;;3.35;;
10319;SDS011;5205;52.168;5.420;2023-07-29T03:27:17;10.05;;;3.67;;
10319;SDS011;5205;52.168;5.420;2023-07-29T03:29:44;7.88;;;3.08;;
10319;SDS011;5205;52.168;5.420;2023-07-29T03:32:11;7.93;;;3.17;;
10319;SDS011;5205;52.168;5.420;2023-07-29T03:34:38;6.53;;;3.05;;
10319;SDS011;5205;52.168;5.420;2023-07-29T03:37:06;4.72;;;2.47;;
10319;SDS011;5205;52.168;5.420;2023-07-29T03:39:33;8.57;;;2.92;;
10319;SDS011;5205;52.168;5.420;2023-07-29T03:42:01;7.35;;;2.95;;
10319;SDS011;5205;52.168;5.420;2023-07-29T03:44:29;7.18;;;3.08;;
10319;SDS011;5205;52.168;5.420;2023-07-29T03:46:57;4.95;;;2.25;;
10319;SDS011;5205;52.168;5.420;2023-07-29T03:49:24;6.05;;;2.45;;
10319;SDS011;5205;52.168;5.420;2023-07-29T03:51:51;5.25;;;2.58;;
10319;SDS011;5205;52.168;5.420;2023-07-29T03:54:18;6.72;;;2.85;;
10319;SDS011;5205;52.168;5.420;2023-07-29T03:56:45;5.45;;;2.85;;
10319;SDS011;5205;52.168;5.420;2023-07-29T03:59:14;5.82;;;2.53;;
10319;SDS011;5205;52.168;5.420;2023-07-29T04:01:41;7.57;;;2.80;;
10319;SDS011;5205;52.168;5.420;2023-07-29T04:04:08;7.07;;;3.05;;
10319;SDS011;5205;52.168;5.420;2023-07-29T04:06:35;5.88;;;3.17;;
10319;SDS011;5205;52.168;5.420;2023-07-29T04:09:02;6.57;;;2.95;;
10319;SDS011;5205;52.168;5.420;2023-07-29T04:11:29;8.60;;;3.13;;
10319;SDS011;5205;52.168;5.420;2023-07-29T04:13:56;6.05;;;2.78;;
10319;SDS011;5205;52.168;5.420;2023-07-29T04:16:25;6.05;;;3.17;;
10319;SDS011;5205;52.168;5.420;2023-07-29T04:18:53;5.13;;;2.80;;
10319;SDS011;5205;52.168;5.420;2023-07-29T04:21:20;7.22;;;3.33;;
10319;SDS011;5205;52.168;5.420;2023-07-29T04:23:47;5.40;;;3.10;;
10319;SDS011;5205;52.168;5.420;2023-07-29T04:26:15;4.90;;;2.72;;
10319;SDS011;5205;52.168;5.420;2023-07-29T04:28:42;8.15;;;2.88;;
10319;SDS011;5205;52.168;5.420;2023-07-29T04:31:09;7.55;;;2.92;;
10319;SDS011;5205;52.168;5.420;2023-07-29T04:33:37;4.03;;;2.15;;
10319;SDS011;5205;52.168;5.420;2023-07-29T04:36:04;4.35;;;2.15;;
10319;SDS011;5205;52.168;5.420;2023-07-29T04:38:32;7.28;;;3.00;;
10319;SDS011;5205;52.168;5.420;2023-07-29T04:40:59;6.53;;;2.55;;
10319;SDS011;5205;52.168;5.420;2023-07-29T04:43:27;5.88;;;2.47;;
10319;SDS011;5205;52.168;5.420;2023-07-29T04:45:54;4.70;;;2.30;;
10319;SDS011;5205;52.168;5.420;2023-07-29T04:48:21;6.13;;;2.05;;
10319;SDS011;5205;52.168;5.420;2023-07-29T04:50:49;6.25;;;2.53;;
10319;SDS011;5205;52.168;5.420;2023-07-29T04:53:16;3.78;;;2.00;;
10319;SDS011;5205;52.168;5.420;2023-07-29T04:55:44;5.50;;;1.92;;
10319;SDS011;5205;52.168;5.420;2023-07-29T04:58:11;8.75;;;2.20;;
10319;SDS011;5205;52.168;5.420;2023-07-29T05:00:38;3.72;;;2.20;;
10319;SDS011;5205;52.168;5.420;2023-07-29T05:03:05;4.95;;;2.20;;
10319;SDS011;5205;52.168;5.420;2023-07-29T05:05:32;3.72;;;1.77;;
10319;SDS011;5205;52.168;5.420;2023-07-29T05:08:01;4.38;;;2.10;;
10319;SDS011;5205;52.168;5.420;2023-07-29T05:10:28;5.15;;;2.20;;
10319;SDS011;5205;52.168;5.420;2023-07-29T05:12:55;3.20;;;1.98;;
10319;SDS011;5205;52.168;5.420;2023-07-29T05:15:22;3.33;;;2.00;;
10319;SDS011;5205;52.168;5.420;2023-07-29T05:17:49;5.30;;;2.08;;
10319;SDS011;5205;52.168;5.420;2023-07-29T05:20:16;3.90;;;1.95;;
10319;SDS011;5205;52.168;5.420;2023-07-29T05:22:43;3.33;;;1.70;;
10319;SDS011;5205;52.168;5.420;2023-07-29T05:25:12;5.07;;;2.05;;
10319;SDS011;5205;52.168;5.420;2023-07-29T05:27:39;3.03;;;1.83;;
10319;SDS011;5205;52.168;5.420;2023-07-29T05:30:07;3.38;;;1.83;;
10319;SDS011;5205;52.168;5.420;2023-07-29T05:32:34;5.15;;;2.15;;
10319;SDS011;5205;52.168;5.420;2023-07-29T05:35:01;4.05;;;2.05;;
10319;SDS011;5205;52.168;5.420;2023-07-29T05:37:29;2.90;;;1.60;;
10319;SDS011;5205;52.168;5.420;2023-07-29T05:39:56;4.25;;;2.03;;
10319;SDS011;5205;52.168;5.420;2023-07-29T05:42:24;8.70;;;2.08;;
10319;SDS011;5205;52.168;5.420;2023-07-29T05:44:51;3.72;;;1.92;;
10319;SDS011;5205;52.168;5.420;2023-07-29T05:47:18;3.92;;;2.05;;
10319;SDS011;5205;52.168;5.420;2023-07-29T05:49:46;6.60;;;2.22;;
10319;SDS011;5205;52.168;5.420;2023-07-29T05:52:13;3.20;;;1.90;;
10319;SDS011;5205;52.168;5.420;2023-07-29T05:54:40;3.58;;;2.17;;
10319;SDS011;5205;52.168;5.420;2023-07-29T05:57:08;4.38;;;2.00;;
10319;SDS011;5205;52.168;5.420;2023-07-29T05:59:37;6.93;;;2.80;;
10319;SDS011;5205;52.168;5.420;2023-07-29T06:02:04;5.18;;;2.28;;
10319;SDS011;5205;52.168;5.420;2023-07-29T06:04:31;4.78;;;2.45;;
10319;SDS011;5205;52.168;5.420;2023-07-29T06:06:58;4.80;;;2.15;;
10319;SDS011;5205;52.168;5.420;2023-07-29T06:09:25;4.97;;;2.40;;
10319;SDS011;5205;52.168;5.420;2023-07-29T06:11:52;4.72;;;2.28;;
10319;SDS011;5205;52.168;5.420;2023-07-29T06:14:20;6.15;;;2.53;;
10319;SDS011;5205;52.168;5.420;2023-07-29T06:16:48;6.13;;;2.55;;
10319;SDS011;5205;52.168;5.420;2023-07-29T06:19:15;6.95;;;2.92;;
10319;SDS011;5205;52.168;5.420;2023-07-29T06:21:42;6.25;;;2.80;;
10319;SDS011;5205;52.168;5.420;2023-07-29T06:24:10;4.82;;;2.67;;
10319;SDS011;5205;52.168;5.420;2023-07-29T06:26:37;5.15;;;2.80;;
10319;SDS011;5205;52.168;5.420;2023-07-29T06:29:04;5.75;;;2.70;;
10319;SDS011;5205;52.168;5.420;2023-07-29T06:31:31;5.57;;;2.03;;
10319;SDS011;5205;52.168;5.420;2023-07-29T06:34:00;7.32;;;2.83;;
10319;SDS011;5205;52.168;5.420;2023-07-29T06:36:28;7.13;;;2.65;;
10319;SDS011;5205;52.168;5.420;2023-07-29T06:38:55;5.22;;;2.78;;
10319;SDS011;5205;52.168;5.420;2023-07-29T06:41:22;5.65;;;2.38;;
10319;SDS011;5205;52.168;5.420;2023-07-29T06:43:50;4.13;;;2.70;;
10319;SDS011;5205;52.168;5.420;2023-07-29T06:46:17;5.35;;;2.88;;
10319;SDS011;5205;52.168;5.420;2023-07-29T06:48:44;6.05;;;2.10;;
10319;SDS011;5205;52.168;5.420;2023-07-29T06:51:12;5.18;;;2.50;;
10319;SDS011;5205;52.168;5.420;2023-07-29T06:53:39;11.50;;;2.72;;
10319;SDS011;5205;52.168;5.420;2023-07-29T06:56:06;5.55;;;2.50;;
10319;SDS011;5205;52.168;5.420;2023-07-29T06:58:34;6.47;;;3.10;;
10319;SDS011;5205;52.168;5.420;2023-07-29T07:01:01;5.95;;;2.60;;
10319;SDS011;5205;52.168;5.420;2023-07-29T07:03:28;6.15;;;3.08;;
10319;SDS011;5205;52.168;5.420;2023-07-29T07:05:55;7.40;;;2.90;;
10319;SDS011;5205;52.168;5.420;2023-07-29T07:08:24;8.85;;;3.45;;
10319;SDS011;5205;52.168;5.420;2023-07-29T07:10:51;6.50;;;3.70;;
10319;SDS011;5205;52.168;5.420;2023-07-29T07:13:18;6.90;;;3.30;;
10319;SDS011;5205;52.168;5.420;2023-07-29T07:15:45;5.75;;;2.88;;
10319;SDS011;5205;52.168;5.420;2023-07-29T07:18:13;5.32;;;3.53;;
10319;SDS011;5205;52.168;5.420;2023-07-29T07:20:40;6.57;;;3.30;;
10319;SDS011;5205;52.168;5.420;2023-07-29T07:23:07;5.35;;;3.10;;
10319;SDS011;5205;52.168;5.420;2023-07-29T07:25:38;11.43;;;3.15;;
10319;SDS011;5205;52.168;5.420;2023-07-29T07:28:05;4.35;;;2.70;;
10319;SDS011;5205;52.168;5.420;2023-07-29T07:30:32;6.35;;;2.88;;
10319;SDS011;5205;52.168;5.420;2023-07-29T07:33:00;5.25;;;2.90;;
10319;SDS011;5205;52.168;5.420;2023-07-29T07:35:27;4.88;;;2.75;;
10319;SDS011;5205;52.168;5.420;2023-07-29T07:37:54;4.90;;;3.15;;
10319;SDS011;5205;52.168;5.420;2023-07-29T07:40:21;7.15;;;3.35;;
10319;SDS011;5205;52.168;5.420;2023-07-29T07:42:50;6.47;;;3.35;;
10319;SDS011;5205;52.168;5.420;2023-07-29T07:45:17;5.95;;;3.15;;
10319;SDS011;5205;52.168;5.420;2023-07-29T07:47:44;6.60;;;3.90;;
10319;SDS011;5205;52.168;5.420;2023-07-29T07:50:11;5.18;;;3.22;;
10319;SDS011;5205;52.168;5.420;2023-07-29T07:52:39;7.20;;;3.58;;
10319;SDS011;5205;52.168;5.420;2023-07-29T07:55:06;6.05;;;3.60;;
10319;SDS011;5205;52.168;5.420;2023-07-29T07:57:34;7.03;;;3.20;;
10319;SDS011;5205;52.168;5.420;2023-07-29T08:00:03;7.95;;;3.28;;
10319;SDS011;5205;52.168;5.420;2023-07-29T08:02:30;4.18;;;3.25;;
10319;SDS011;5205;52.168;5.420;2023-07-29T08:04:57;9.05;;;3.70;;
10319;SDS011;5205;52.168;5.420;2023-07-29T08:07:24;6.97;;;3.55;;
10319;SDS011;5205;52.168;5.420;2023-07-29T08:09:52;4.93;;;3.28;;
10319;SDS011;5205;52.168;5.420;2023-07-29T08:12:19;7.35;;;3.13;;
10319;SDS011;5205;52.168;5.420;2023-07-29T08:14:46;5.32;;;3.15;;
10319;SDS011;5205;52.168;5.420;2023-07-29T08:17:14;7.32;;;3.40;;
10319;SDS011;5205;52.168;5.420;2023-07-29T08:19:41;5.72;;;3.30;;
10319;SDS011;5205;52.168;5.420;2023-07-29T08:22:08;4.10;;;2.90;;
10319;SDS011;5205;52.168;5.420;2023-07-29T08:24:36;5.45;;;3.20;;
10319;SDS011;5205;52.168;5.420;2023-07-29T08:27:03;4.75;;;2.63;;
10319;SDS011;5205;52.168;5.420;2023-07-29T08:29:30;6.55;;;2.85;;
10319;SDS011;5205;52.168;5.420;2023-07-29T08:31:57;5.53;;;2.72;;
10319;SDS011;5205;52.168;5.420;2023-07-29T08:34:26;4.38;;;2.67;;
10319;SDS011;5205;52.168;5.420;2023-07-29T08:36:54;9.18;;;4.80;;
10319;SDS011;5205;52.168;5.420;2023-07-29T08:39:21;6.07;;;3.80;;
10319;SDS011;5205;52.168;5.420;2023-07-29T08:41:49;6.88;;;2.97;;
10319;SDS011;5205;52.168;5.420;2023-07-29T08:44:18;3.70;;;2.58;;
10319;SDS011;5205;52.168;5.420;2023-07-29T08:46:46;5.10;;;2.67;;
10319;SDS011;5205;52.168;5.420;2023-07-29T08:49:13;4.05;;;2.40;;
10319;SDS011;5205;52.168;5.420;2023-07-29T08:51:45;5.80;;;2.13;;
10319;SDS011;5205;52.168;5.420;2023-07-29T08:54:13;6.18;;;2.45;;
10319;SDS011;5205;52.168;5.420;2023-07-29T08:56:40;5.38;;;3.10;;
10319;SDS011;5205;52.168;5.420;2023-07-29T08:59:08;4.78;;;2.35;;
10319;SDS011;5205;52.168;5.420;2023-07-29T09:01:36;5.45;;;2.40;;
10319;SDS011;5205;52.168;5.420;2023-07-29T09:04:03;5.35;;;2.85;;
10319;SDS011;5205;52.168;5.420;2023-07-29T09:06:30;4.85;;;2.20;;
10319;SDS011;5205;52.168;5.420;2023-07-29T09:08:59;3.35;;;2.30;;
10319;SDS011;5205;52.168;5.420;2023-07-29T09:11:27;8.95;;;2.40;;
10319;SDS011;5205;52.168;5.420;2023-07-29T09:13:54;4.68;;;2.17;;
10319;SDS011;5205;52.168;5.420;2023-07-29T09:16:21;4.15;;;2.30;;
10319;SDS011;5205;52.168;5.420;2023-07-29T09:18:49;8.02;;;2.40;;
10319;SDS011;5205;52.168;5.420;2023-07-29T09:21:16;3.83;;;1.98;;
10319;SDS011;5205;52.168;5.420;2023-07-29T09:23:44;4.22;;;2.10;;
10319;SDS011;5205;52.168;5.420;2023-07-29T09:26:13;3.72;;;2.13;;
10319;SDS011;5205;52.168;5.420;2023-07-29T09:28:40;5.50;;;2.35;;
10319;SDS011;5205;52.168;5.420;2023-07-29T09:31:10;3.65;;;2.13;;
10319;SDS011;5205;52.168;5.420;2023-07-29T09:33:45;4.10;;;2.35;;
10319;SDS011;5205;52.168;5.420;2023-07-29T09:36:13;4.05;;;2.15;;
10319;SDS011;5205;52.168;5.420;2023-07-29T09:38:40;3.78;;;1.83;;
10319;SDS011;5205;52.168;5.420;2023-07-29T09:41:07;3.78;;;2.40;;
10319;SDS011;5205;52.168;5.420;2023-07-29T09:43:36;5.72;;;2.50;;
10319;SDS011;5205;52.168;5.420;2023-07-29T09:46:03;4.70;;;1.95;;
10319;SDS011;5205;52.168;5.420;2023-07-29T09:48:32;4.18;;;2.13;;
10319;SDS011;5205;52.168;5.420;2023-07-29T09:50:59;5.80;;;2.22;;
10319;SDS011;5205;52.168;5.420;2023-07-29T09:53:26;12.10;;;3.83;;
10319;SDS011;5205;52.168;5.420;2023-07-29T09:55:53;4.43;;;2.28;;
10319;SDS011;5205;52.168;5.420;2023-07-29T09:58:25;3.22;;;2.22;;
10319;SDS011;5205;52.168;5.420;2023-07-29T10:00:56;4.88;;;2.20;;
10319;SDS011;5205;52.168;5.420;2023-07-29T10:03:23;4.72;;;2.38;;
10319;SDS011;5205;52.168;5.420;2023-07-29T10:05:50;3.15;;;2.10;;
10319;SDS011;5205;52.168;5.420;2023-07-29T10:08:18;5.40;;;2.75;;
10319;SDS011;5205;52.168;5.420;2023-07-29T10:10:45;3.05;;;2.45;;
10319;SDS011;5205;52.168;5.420;2023-07-29T10:13:13;5.03;;;2.38;;
10319;SDS011;5205;52.168;5.420;2023-07-29T10:15:40;3.70;;;2.05;;
10319;SDS011;5205;52.168;5.420;2023-07-29T10:18:09;5.03;;;2.10;;
10319;SDS011;5205;52.168;5.420;2023-07-29T10:20:36;4.55;;;2.38;;
10319;SDS011;5205;52.168;5.420;2023-07-29T10:23:03;4.30;;;2.28;;
10319;SDS011;5205;52.168;5.420;2023-07-29T10:25:38;2.70;;;2.10;;
10319;SDS011;5205;52.168;5.420;2023-07-29T10:28:07;2.97;;;1.70;;
10319;SDS011;5205;52.168;5.420;2023-07-29T10:30:34;3.65;;;2.10;;
10319;SDS011;5205;52.168;5.420;2023-07-29T10:33:02;7.22;;;2.28;;
10319;SDS011;5205;52.168;5.420;2023-07-29T10:35:30;3.20;;;1.63;;
10319;SDS011;5205;52.168;5.420;2023-07-29T10:37:59;4.10;;;2.17;;
10319;SDS011;5205;52.168;5.420;2023-07-29T10:40:27;5.05;;;2.20;;
10319;SDS011;5205;52.168;5.420;2023-07-29T10:43:10;4.40;;;2.45;;
10319;SDS011;5205;52.168;5.420;2023-07-29T10:45:40;10.40;;;2.88;;
10319;SDS011;5205;52.168;5.420;2023-07-29T10:48:09;4.93;;;2.90;;
10319;SDS011;5205;52.168;5.420;2023-07-29T10:50:38;6.65;;;3.25;;
10319;SDS011;5205;52.168;5.420;2023-07-29T10:53:06;4.28;;;2.72;;
10319;SDS011;5205;52.168;5.420;2023-07-29T10:55:33;4.55;;;3.13;;
10319;SDS011;5205;52.168;5.420;2023-07-29T10:58:05;4.00;;;2.92;;
10319;SDS011;5205;52.168;5.420;2023-07-29T11:00:33;7.82;;;3.53;;
10319;SDS011;5205;52.168;5.420;2023-07-29T11:03:01;9.68;;;3.28;;
10319;SDS011;5205;52.168;5.420;2023-07-29T11:05:42;5.05;;;3.15;;
10319;SDS011;5205;52.168;5.420;2023-07-29T11:08:19;7.07;;;3.80;;
10319;SDS011;5205;52.168;5.420;2023-07-29T11:11:01;7.88;;;3.20;;
10319;SDS011;5205;52.168;5.420;2023-07-29T11:13:28;6.95;;;3.80;;
10319;SDS011;5205;52.168;5.420;2023-07-29T11:15:56;5.28;;;3.53;;
10319;SDS011;5205;52.168;5.420;2023-07-29T11:18:25;12.35;;;3.65;;
10319;SDS011;5205;52.168;5.420;2023-07-29T11:20:54;6.43;;;3.20;;
10319;SDS011;5205;52.168;5.420;2023-07-29T11:23:27;3.85;;;2.40;;
10319;SDS011;5205;52.168;5.420;2023-07-29T11:25:54;3.78;;;2.20;;
10319;SDS011;5205;52.168;5.420;2023-07-29T11:28:21;2.75;;;1.83;;
10319;SDS011;5205;52.168;5.420;2023-07-29T11:30:49;4.20;;;1.60;;
10319;SDS011;5205;52.168;5.420;2023-07-29T11:33:17;2.65;;;1.50;;
10319;SDS011;5205;52.168;5.420;2023-07-29T11:35:44;2.83;;;1.40;;
10319;SDS011;5205;52.168;5.420;2023-07-29T11:38:15;2.70;;;1.30;;
10319;SDS011;5205;52.168;5.420;2023-07-29T11:40:43;2.13;;;1.30;;
10319;SDS011;5205;52.168;5.420;2023-07-29T11:43:17;1.73;;;1.17;;
10319;SDS011;5205;52.168;5.420;2023-07-29T11:45:45;4.57;;;2.05;;
10319;SDS011;5205;52.168;5.420;2023-07-29T11:48:12;1.90;;;1.15;;
10319;SDS011;5205;52.168;5.420;2023-07-29T11:50:39;3.63;;;1.42;;
10319;SDS011;5205;52.168;5.420;2023-07-29T11:53:06;2.28;;;0.98;;
10319;SDS011;5205;52.168;5.420;2023-07-29T11:55:35;3.08;;;1.02;;
10319;SDS011;5205;52.168;5.420;2023-07-29T11:58:02;2.00;;;1.00;;
10319;SDS011;5205;52.168;5.420;2023-07-29T12:00:29;2.08;;;1.05;;
10319;SDS011;5205;52.168;5.420;2023-07-29T12:02:57;1.92;;;0.90;;
10319;SDS011;5205;52.168;5.420;2023-07-29T12:05:24;1.55;;;0.98;;
10319;SDS011;5205;52.168;5.420;2023-07-29T12:07:52;2.42;;;1.00;;
10319;SDS011;5205;52.168;5.420;2023-07-29T12:10:19;1.90;;;1.20;;
10319;SDS011;5205;52.168;5.420;2023-07-29T12:12:49;5.13;;;1.45;;
10319;SDS011;5205;52.168;5.420;2023-07-29T12:15:23;2.50;;;1.48;;
10319;SDS011;5205;52.168;5.420;2023-07-29T12:17:52;2.45;;;1.25;;
10319;SDS011;5205;52.168;5.420;2023-07-29T12:20:20;2.03;;;1.30;;
10319;SDS011;5205;52.168;5.420;2023-07-29T12:22:51;3.13;;;1.27;;
10319;SDS011;5205;52.168;5.420;2023-07-29T12:25:18;1.90;;;1.00;;
10319;SDS011;5205;52.168;5.420;2023-07-29T12:27:46;3.25;;;1.67;;
10319;SDS011;5205;52.168;5.420;2023-07-29T12:30:14;1.55;;;0.88;;
10319;SDS011;5205;52.168;5.420;2023-07-29T12:32:45;2.40;;;1.17;;
10319;SDS011;5205;52.168;5.420;2023-07-29T12:35:12;2.90;;;1.25;;
10319;SDS011;5205;52.168;5.420;2023-07-29T12:37:39;2.50;;;1.00;;
10319;SDS011;5205;52.168;5.420;2023-07-29T12:40:08;1.77;;;1.00;;
10319;SDS011;5205;52.168;5.420;2023-07-29T12:42:35;1.83;;;1.20;;
10319;SDS011;5205;52.168;5.420;2023-07-29T12:45:03;1.58;;;1.08;;
10319;SDS011;5205;52.168;5.420;2023-07-29T12:47:31;1.35;;;0.88;;
10319;SDS011;5205;52.168;5.420;2023-07-29T12:49:58;1.42;;;0.98;;
10319;SDS011;5205;52.168;5.420;2023-07-29T12:52:25;2.15;;;1.20;;
10319;SDS011;5205;52.168;5.420;2023-07-29T12:54:56;2.83;;;1.23;;
10319;SDS011;5205;52.168;5.420;2023-07-29T12:57:23;2.42;;;1.40;;
10319;SDS011;5205;52.168;5.420;2023-07-29T12:59:50;4.13;;;1.27;;
10319;SDS011;5205;52.168;5.420;2023-07-29T13:02:17;3.53;;;1.40;;
10319;SDS011;5205;52.168;5.420;2023-07-29T13:04:46;2.47;;;1.50;;
10319;SDS011;5205;52.168;5.420;2023-07-29T13:07:13;2.08;;;1.08;;
10319;SDS011;5205;52.168;5.420;2023-07-29T13:09:40;2.30;;;1.40;;
10319;SDS011;5205;52.168;5.420;2023-07-29T13:12:07;2.95;;;1.65;;
10319;SDS011;5205;52.168;5.420;2023-07-29T13:14:35;2.10;;;1.30;;
10319;SDS011;5205;52.168;5.420;2023-07-29T13:17:02;1.90;;;1.20;;
10319;SDS011;5205;52.168;5.420;2023-07-29T13:19:29;1.63;;;0.93;;
10319;SDS011;5205;52.168;5.420;2023-07-29T13:21:57;2.35;;;1.25;;
10319;SDS011;5205;52.168;5.420;2023-07-29T13:24:24;2.20;;;1.30;;
10319;SDS011;5205;52.168;5.420;2023-07-29T13:26:52;2.38;;;1.20;;
10319;SDS011;5205;52.168;5.420;2023-07-29T13:29:19;3.08;;;1.33;;
10319;SDS011;5205;52.168;5.420;2023-07-29T13:31:46;3.20;;;1.40;;
10319;SDS011;5205;52.168;5.420;2023-07-29T13:34:13;3.30;;;1.30;;
10319;SDS011;5205;52.168;5.420;2023-07-29T13:36:40;5.78;;;1.25;;
10319;SDS011;5205;52.168;5.420;2023-07-29T13:39:09;1.88;;;1.23;;
10319;SDS011;5205;52.168;5.420;2023-07-29T13:41:36;1.90;;;1.20;;
10319;SDS011;5205;52.168;5.420;2023-07-29T13:44:03;4.00;;;1.35;;
10319;SDS011;5205;52.168;5.420;2023-07-29T13:46:30;1.98;;;1.20;;
10319;SDS011;5205;52.168;5.420;2023-07-29T13:48:57;2.20;;;1.40;;
10319;SDS011;5205;52.168;5.420;2023-07-29T13:51:24;3.72;;;1.20;;
10319;SDS011;5205;52.168;5.420;2023-07-29T13:53:52;3.90;;;1.38;;
10319;SDS011;5205;52.168;5.420;2023-07-29T13:56:22;2.45;;;1.20;;
10319;SDS011;5205;52.168;5.420;2023-07-29T13:58:49;2.20;;;1.38;;
10319;SDS011;5205;52.168;5.420;2023-07-29T14:01:17;3.15;;;1.40;;
10319;SDS011;5205;52.168;5.420;2023-07-29T14:03:44;3.08;;;1.60;;
10319;SDS011;5205;52.168;5.420;2023-07-29T14:06:11;2.47;;;1.60;;
10319;SDS011;5205;52.168;5.420;2023-07-29T14:08:38;2.90;;;1.50;;
10319;SDS011;5205;52.168;5.420;2023-07-29T14:11:06;2.30;;;1.40;;
10319;SDS011;5205;52.168;5.420;2023-07-29T14:13:35;4.47;;;1.75;;
10319;SDS011;5205;52.168;5.420;2023-07-29T14:16:02;3.42;;;1.50;;
10319;SDS011;5205;52.168;5.420;2023-07-29T14:18:30;2.72;;;1.25;;
10319;SDS011;5205;52.168;5.420;2023-07-29T14:20:57;2.60;;;1.30;;
10319;SDS011;5205;52.168;5.420;2023-07-29T14:23:24;3.53;;;1.25;;
10319;SDS011;5205;52.168;5.420;2023-07-29T14:25:51;3.25;;;1.30;;
10319;SDS011;5205;52.168;5.420;2023-07-29T14:28:19;3.35;;;1.48;;
10319;SDS011;5205;52.168;5.420;2023-07-29T14:30:47;2.65;;;1.30;;
10319;SDS011;5205;52.168;5.420;2023-07-29T14:33:14;3.08;;;1.20;;
10319;SDS011;5205;52.168;5.420;2023-07-29T14:35:42;2.55;;;1.30;;
10319;SDS011;5205;52.168;5.420;2023-07-29T14:38:09;3.72;;;1.42;;
10319;SDS011;5205;52.168;5.420;2023-07-29T14:40:37;2.60;;;1.30;;
10319;SDS011;5205;52.168;5.420;2023-07-29T14:43:04;2.90;;;1.10;;
10319;SDS011;5205;52.168;5.420;2023-07-29T14:45:31;2.92;;;1.15;;
10319;SDS011;5205;52.168;5.420;2023-07-29T14:48:00;2.22;;;0.93;;
10319;SDS011;5205;52.168;5.420;2023-07-29T14:50:27;3.88;;;1.10;;
10319;SDS011;5205;52.168;5.420;2023-07-29T14:52:55;2.50;;;1.08;;
10319;SDS011;5205;52.168;5.420;2023-07-29T14:55:22;2.55;;;1.00;;
10319;SDS011;5205;52.168;5.420;2023-07-29T14:57:49;5.72;;;1.58;;
10319;SDS011;5205;52.168;5.420;2023-07-29T15:00:16;5.10;;;1.48;;
10319;SDS011;5205;52.168;5.420;2023-07-29T15:02:43;3.25;;;1.10;;